createdAt,value
2022-11-22T00:02:19.654Z,99323.72
2022-11-22T00:04:47.400Z,99338.78
2022-11-22T00:07:15.241Z,99284.13
2022-11-22T00:09:43.481Z,99342.28
2022-11-22T00:12:11.220Z,99296.91
2022-11-22T00:14:38.975Z,99346.72
2022-11-22T00:17:07.057Z,99317.38
2022-11-22T00:19:35.871Z,99302.00
2022-11-22T00:22:04.676Z,99269.50
2022-11-22T00:24:32.760Z,99299.94
2022-11-22T00:27:00.638Z,99324.56
2022-11-22T00:29:28.531Z,99334.06
2022-11-22T00:31:56.490Z,99322.13
2022-11-22T00:34:24.187Z,99340.06
2022-11-22T00:36:52.413Z,99348.72
2022-11-22T00:39:20.196Z,99300.81
2022-11-22T00:41:48.535Z,99268.38
2022-11-22T00:44:16.408Z,99273.81
2022-11-22T00:46:44.083Z,99348.19
2022-11-22T00:49:11.754Z,99347.59
2022-11-22T00:51:40.764Z,99308.41
2022-11-22T00:54:08.854Z,99320.31
2022-11-22T00:56:36.461Z,99299.38
2022-11-22T00:59:04.317Z,99306.94
2022-11-22T01:01:32.206Z,99319.03
2022-11-22T01:04:00.629Z,99328.28
2022-11-22T01:06:28.278Z,99291.06
2022-11-22T01:08:56.205Z,99320.47
2022-11-22T01:11:23.940Z,99362.63
2022-11-22T01:13:51.584Z,99318.69
2022-11-22T01:16:19.386Z,99369.81
2022-11-22T01:18:47.018Z,99326.47
2022-11-22T01:21:14.637Z,99365.41
2022-11-22T01:23:42.571Z,99331.47
2022-11-22T01:26:10.657Z,99278.63
2022-11-22T01:28:38.809Z,99308.72
2022-11-22T01:31:06.500Z,99280.47
2022-11-22T01:33:34.481Z,99328.69
2022-11-22T01:36:02.962Z,99306.56
2022-11-22T01:38:30.729Z,99429.47
2022-11-22T01:40:58.555Z,99379.41
2022-11-22T01:43:28.632Z,99323.06
2022-11-22T01:46:07.697Z,99333.31
2022-11-22T01:48:48.780Z,99450.88
2022-11-22T01:51:28.393Z,99453.41
2022-11-22T01:54:00.803Z,99448.91
2022-11-22T01:56:30.631Z,99364.88
2022-11-22T01:59:03.303Z,99463.59
2022-11-22T02:01:32.621Z,99469.81
2022-11-22T02:04:03.320Z,99462.16
2022-11-22T02:06:46.746Z,99384.94
2022-11-22T02:09:14.923Z,99482.31
2022-11-22T02:11:48.540Z,99477.69
2022-11-22T02:14:19.561Z,99492.13
2022-11-22T02:16:48.828Z,99408.66
2022-11-22T02:19:23.550Z,99424.13
2022-11-22T02:22:00.739Z,99411.06
2022-11-22T02:24:39.615Z,99481.34
2022-11-22T02:27:07.257Z,99390.09
2022-11-22T02:29:35.754Z,99509.53
2022-11-22T02:32:03.988Z,99516.69
2022-11-22T02:34:42.618Z,99496.50
2022-11-22T02:37:13.216Z,99394.59
2022-11-22T02:39:44.202Z,99548.97
2022-11-22T02:42:12.453Z,99543.25
2022-11-22T02:44:42.123Z,99423.31
2022-11-22T02:47:09.849Z,99475.44
2022-11-22T02:49:37.539Z,99452.25
2022-11-22T02:52:05.191Z,99558.34
2022-11-22T02:54:33.311Z,99455.44
2022-11-22T02:57:03.078Z,99534.50
2022-11-22T02:59:31.367Z,99540.03
2022-11-22T03:02:03.268Z,99521.97
2022-11-22T03:04:31.328Z,99549.88
2022-11-22T03:07:00.101Z,99540.56
2022-11-22T03:09:29.472Z,99515.41
2022-11-22T03:11:57.895Z,99502.47
2022-11-22T03:14:25.853Z,99537.94
2022-11-22T03:16:53.554Z,99500.66
2022-11-22T03:19:21.582Z,99540.06
2022-11-22T03:21:49.941Z,99563.75
2022-11-22T03:24:17.793Z,99559.94
2022-11-22T03:26:50.451Z,99568.97
2022-11-22T03:29:18.364Z,99586.56
2022-11-22T03:31:46.130Z,99577.53
2022-11-22T03:34:14.140Z,99579.44
2022-11-22T03:36:42.175Z,99541.22
2022-11-22T03:39:09.916Z,99563.16
2022-11-22T03:41:37.596Z,99531.50
2022-11-22T03:44:05.400Z,99557.75
2022-11-22T03:46:33.275Z,99557.53
2022-11-22T03:49:01.006Z,99541.47
2022-11-22T03:51:28.576Z,99558.94
2022-11-22T03:53:56.572Z,99532.81
2022-11-22T03:56:24.391Z,99544.66
2022-11-22T03:58:51.997Z,99527.56
2022-11-22T04:01:19.830Z,99464.84
2022-11-22T04:03:47.677Z,99521.75
2022-11-22T04:06:15.689Z,99507.25
2022-11-22T04:08:43.771Z,99514.41
2022-11-22T04:11:12.552Z,99441.88
2022-11-22T04:13:59.050Z,99517.13
2022-11-22T04:16:26.878Z,99496.41
2022-11-22T04:18:54.549Z,99483.03
2022-11-22T04:21:34.355Z,99518.25
2022-11-22T04:24:23.122Z,99532.81
2022-11-22T04:26:51.180Z,99539.25
2022-11-22T04:29:20.677Z,99545.16
2022-11-22T04:32:08.396Z,99544.16
2022-11-22T04:34:36.689Z,99515.53
2022-11-22T04:37:05.026Z,99518.84
2022-11-22T04:39:33.237Z,99527.78
2022-11-22T04:42:19.679Z,99524.06
2022-11-22T04:44:47.539Z,99480.03
2022-11-22T04:47:37.882Z,99566.88
2022-11-22T04:50:28.753Z,99522.94
2022-11-22T04:52:57.711Z,99525.16
2022-11-22T04:55:25.470Z,99533.78
2022-11-22T04:57:59.257Z,99501.22
2022-11-22T05:00:31.554Z,99582.91
2022-11-22T05:02:59.773Z,99553.31
2022-11-22T05:05:27.611Z,99544.19
2022-11-22T05:07:57.997Z,99562.94
2022-11-22T05:10:27.062Z,99572.31
2022-11-22T05:12:56.323Z,99585.78
2022-11-22T05:15:24.202Z,99583.69
2022-11-22T05:17:51.944Z,99590.19
2022-11-22T05:20:19.705Z,99607.47
2022-11-22T05:23:06.861Z,99590.44
2022-11-22T05:25:34.734Z,99619.19
2022-11-22T05:28:02.271Z,99635.56
2022-11-22T05:30:30.011Z,99629.34
2022-11-22T05:32:57.722Z,99626.56
2022-11-22T05:35:25.873Z,99626.28
2022-11-22T05:37:53.517Z,99678.47
2022-11-22T05:40:21.269Z,99684.94
2022-11-22T05:42:48.932Z,99704.63
2022-11-22T05:45:17.018Z,99682.56
2022-11-22T05:47:45.376Z,99717.44
2022-11-22T05:50:13.757Z,99675.09
2022-11-22T05:52:41.783Z,99692.72
2022-11-22T05:55:09.859Z,99694.88
2022-11-22T05:57:37.843Z,99689.94
2022-11-22T06:00:08.532Z,99699.38
2022-11-22T06:02:42.449Z,99705.03
2022-11-22T06:05:10.302Z,99663.16
2022-11-22T06:07:38.076Z,99731.88
2022-11-22T06:10:06.115Z,99719.91
2022-11-22T06:12:33.863Z,99674.25
2022-11-22T06:15:01.640Z,99704.16
2022-11-22T06:17:30.950Z,99652.53
2022-11-22T06:20:04.170Z,99697.13
2022-11-22T06:22:33.603Z,99693.31
2022-11-22T06:25:02.181Z,99671.88
2022-11-22T06:27:30.455Z,99673.56
2022-11-22T06:29:58.349Z,99630.63
2022-11-22T06:32:26.007Z,99668.13
2022-11-22T06:34:53.934Z,99734.75
2022-11-22T06:37:21.758Z,99727.97
2022-11-22T06:39:50.729Z,99721.25
2022-11-22T06:42:20.062Z,99678.44
2022-11-22T06:44:47.759Z,99722.94
2022-11-22T06:47:17.659Z,99698.81
2022-11-22T06:49:48.448Z,99743.25
2022-11-22T06:52:16.278Z,99753.59
2022-11-22T06:54:44.035Z,99737.91
2022-11-22T06:57:15.132Z,99688.66
2022-11-22T06:59:42.759Z,99706.47
2022-11-22T07:02:12.415Z,99717.25
2022-11-22T07:04:56.071Z,99734.59
2022-11-22T07:07:30.389Z,99750.50
2022-11-22T07:09:58.143Z,99771.16
2022-11-22T07:12:26.690Z,99763.75
2022-11-22T07:14:54.445Z,99778.56
2022-11-22T07:17:22.230Z,99784.13
2022-11-22T07:19:50.136Z,99781.19
2022-11-22T07:22:18.003Z,99773.06
2022-11-22T07:24:45.701Z,99789.72
2022-11-22T07:27:13.517Z,99739.19
2022-11-22T07:29:41.225Z,99802.69
2022-11-22T07:32:08.985Z,99787.22
2022-11-22T07:34:36.702Z,99790.63
2022-11-22T07:37:08.916Z,99803.78
2022-11-22T07:39:37.014Z,99745.72
2022-11-22T07:42:04.769Z,99752.34
2022-11-22T07:44:32.548Z,99753.88
2022-11-22T07:47:00.383Z,99847.19
2022-11-22T07:49:28.402Z,99829.72
2022-11-22T07:51:56.510Z,99844.53
2022-11-22T07:54:24.267Z,99801.81
2022-11-22T07:56:52.025Z,99796.06
2022-11-22T07:59:19.841Z,99862.75
2022-11-22T08:01:47.565Z,99840.19
2022-11-22T08:04:15.615Z,99774.91
2022-11-22T08:06:43.468Z,99839.63
2022-11-22T08:09:12.035Z,99828.16
2022-11-22T08:11:39.640Z,99854.97
2022-11-22T08:14:07.382Z,99875.66
2022-11-22T08:16:35.198Z,99834.00
2022-11-22T08:19:02.833Z,99848.00
2022-11-22T08:21:30.544Z,99810.25
2022-11-22T08:23:59.279Z,99854.72
2022-11-22T08:26:26.996Z,99840.84
2022-11-22T08:28:54.710Z,99868.09
2022-11-22T08:31:22.574Z,99795.88
2022-11-22T08:33:53.940Z,99832.44
2022-11-22T08:36:22.156Z,99810.44
2022-11-22T08:38:49.940Z,99799.75
2022-11-22T08:41:18.968Z,99876.47
2022-11-22T08:43:49.513Z,99820.97
2022-11-22T08:46:17.727Z,99852.13
2022-11-22T08:48:46.301Z,99815.84
2022-11-22T08:51:14.477Z,99874.88
2022-11-22T08:53:43.733Z,99878.72
2022-11-22T08:56:14.183Z,99880.63
2022-11-22T08:58:43.192Z,99873.59
2022-11-22T09:01:14.661Z,99866.25
2022-11-22T09:03:43.973Z,99854.13
2022-11-22T09:11:49.568Z,99885.00
2022-11-22T09:14:17.487Z,99849.69
2022-11-22T09:16:45.334Z,99895.56
2022-11-22T09:19:12.993Z,99850.59
2022-11-22T09:21:40.557Z,99915.72
2022-11-22T09:24:08.344Z,99859.25
2022-11-22T09:26:36.245Z,99892.22
2022-11-22T09:29:04.229Z,99907.03
2022-11-22T09:31:32.417Z,99899.69
2022-11-22T09:34:00.131Z,99907.16
2022-11-22T09:36:28.087Z,99902.41
2022-11-22T09:38:59.157Z,99884.75
2022-11-22T09:42:12.290Z,99909.69
2022-11-22T09:44:58.776Z,99912.59
2022-11-22T09:47:48.191Z,99906.97
2022-11-22T09:50:35.363Z,99904.75
2022-11-22T09:53:04.758Z,99861.44
2022-11-22T09:55:42.185Z,99880.41
2022-11-22T09:58:23.651Z,99887.13
2022-11-22T10:00:53.089Z,99882.81
2022-11-22T10:03:47.708Z,99880.25
2022-11-22T10:06:27.620Z,99893.75
2022-11-22T10:09:28.220Z,99905.72
2022-11-22T10:12:25.469Z,99890.72
2022-11-22T10:15:08.588Z,99922.53
2022-11-22T10:18:02.601Z,99932.47
2022-11-22T10:20:35.406Z,99878.03
2022-11-22T10:23:03.803Z,99925.56
2022-11-22T10:25:45.984Z,99927.63
2022-11-22T10:28:23.052Z,99959.31
2022-11-22T10:31:16.904Z,99946.59
2022-11-22T10:33:57.245Z,99956.28
2022-11-22T10:36:59.066Z,99961.53
2022-11-22T10:39:30.114Z,99959.94
2022-11-22T10:42:20.738Z,99956.41
2022-11-22T10:45:25.161Z,99926.72
2022-11-22T10:48:23.201Z,99914.31
2022-11-22T10:51:15.838Z,99929.16
2022-11-22T10:53:49.481Z,99937.50
2022-11-22T10:56:23.243Z,99939.84
2022-11-22T10:59:12.872Z,99938.03
2022-11-22T11:01:48.716Z,99893.63
2022-11-22T11:04:18.354Z,99881.25
2022-11-22T11:07:11.053Z,99869.75
2022-11-22T11:13:01.918Z,99885.78
2022-11-22T11:15:42.529Z,99877.94
2022-11-22T11:18:52.139Z,99852.94
2022-11-22T11:21:19.837Z,99867.16
2022-11-22T11:23:48.573Z,99850.84
2022-11-22T11:26:29.502Z,99868.16
2022-11-22T11:29:18.977Z,99860.59
2022-11-22T11:31:48.965Z,99849.13
2022-11-22T11:34:24.569Z,99857.81
2022-11-22T11:36:56.371Z,99811.91
2022-11-22T11:39:29.054Z,99823.97
2022-11-22T11:41:58.353Z,99765.88
2022-11-22T11:44:32.454Z,99807.06
2022-11-22T11:47:00.763Z,99788.44
2022-11-22T11:49:31.252Z,99806.75
2022-11-22T11:52:03.761Z,99800.41
2022-11-22T11:54:44.293Z,99752.31
2022-11-22T11:57:11.855Z,99772.63
2022-11-22T11:59:39.489Z,99779.09
2022-11-22T12:02:39.907Z,99782.19
2022-11-22T12:05:13.972Z,99766.69
2022-11-22T12:07:46.591Z,99738.13
2022-11-22T12:10:30.030Z,99732.31
2022-11-22T12:13:13.300Z,99737.03
2022-11-22T12:16:08.788Z,99748.69
2022-11-22T12:19:02.813Z,99739.44
2022-11-22T12:21:40.257Z,99768.81
2022-11-22T12:24:45.596Z,99767.31
2022-11-22T12:27:14.279Z,99712.56
2022-11-22T12:29:46.489Z,99700.28
2022-11-22T12:32:27.900Z,99710.38
2022-11-22T12:35:03.994Z,99757.97
2022-11-22T12:37:39.487Z,99724.56
2022-11-22T12:40:25.431Z,99776.53
2022-11-22T12:42:58.212Z,99699.06
2022-11-22T12:45:35.051Z,99668.94
2022-11-22T12:48:14.469Z,99698.50
2022-11-22T12:50:47.857Z,99711.63
2022-11-22T12:53:20.775Z,99742.72
2022-11-22T12:55:58.920Z,99693.75
2022-11-22T12:58:51.475Z,99756.31
2022-11-22T13:01:38.156Z,99738.59
2022-11-22T13:04:12.274Z,99759.59
2022-11-22T13:06:50.021Z,99756.88
2022-11-22T13:09:31.872Z,99757.19
2022-11-22T13:12:05.588Z,99692.91
2022-11-22T13:14:41.716Z,99759.50
2022-11-22T13:17:11.158Z,99724.47
2022-11-22T13:19:47.190Z,99727.44
2022-11-22T13:22:39.984Z,99765.25
2022-11-22T13:25:27.180Z,99699.72
2022-11-22T13:28:00.666Z,99730.38
2022-11-22T13:30:31.096Z,99674.88
2022-11-22T13:33:01.066Z,99705.03
2022-11-22T13:35:37.585Z,99688.91
2022-11-22T13:38:11.248Z,99647.28
2022-11-22T13:40:45.392Z,99718.00
2022-11-22T13:43:21.924Z,99722.34
2022-11-22T13:45:50.099Z,99744.56
2022-11-22T13:48:42.639Z,99717.03
2022-11-22T13:51:13.171Z,99678.94
2022-11-22T13:53:45.769Z,99706.16
2022-11-22T13:56:16.547Z,99705.84
2022-11-22T13:59:04.624Z,99687.97
2022-11-22T14:01:35.256Z,99707.22
2022-11-22T14:04:21.802Z,99713.19
2022-11-22T14:06:58.009Z,99706.16
2022-11-22T14:09:38.065Z,99710.47
2022-11-22T14:12:23.009Z,99721.94
2022-11-22T14:15:21.000Z,99694.75
2022-11-22T14:18:00.751Z,99721.94
2022-11-22T14:20:28.367Z,99711.88
2022-11-22T14:23:01.958Z,99677.13
2022-11-22T14:25:45.029Z,99722.47
2022-11-22T14:28:40.158Z,99722.75
2022-11-22T14:31:23.771Z,99690.81
2022-11-22T14:34:18.123Z,99722.47
2022-11-22T14:37:08.357Z,99694.00
2022-11-22T14:39:45.473Z,99708.06
2022-11-22T14:42:36.597Z,99704.16
2022-11-22T14:45:11.451Z,99727.38
2022-11-22T14:47:47.794Z,99719.75
2022-11-22T14:50:28.348Z,99713.78
2022-11-22T14:52:59.672Z,99715.13
2022-11-22T14:55:32.435Z,99673.81
2022-11-22T14:58:07.689Z,99697.53
2022-11-22T15:00:57.443Z,99703.00
2022-11-22T15:03:40.400Z,99685.69
2022-11-22T15:09:21.285Z,99690.00
2022-11-22T15:09:40.629Z,99677.22
2022-11-22T15:12:27.775Z,99649.78
2022-11-22T15:57:32.239Z,99683.72
2022-11-22T16:00:00.316Z,99705.56
2022-11-22T16:02:31.772Z,99688.06
2022-11-22T16:06:09.639Z,99736.06
2022-11-22T16:07:49.926Z,99730.97
2022-11-22T16:10:26.477Z,99756.78
2022-11-22T16:12:54.379Z,99748.63
2022-11-22T16:15:36.316Z,99737.75
2022-11-22T16:18:13.504Z,99729.91
2022-11-22T16:20:42.842Z,99693.22
2022-11-22T16:23:10.843Z,99733.91
2022-11-22T16:25:40.700Z,99666.06
2022-11-22T16:28:33.117Z,99725.75
2022-11-22T16:31:04.496Z,99659.63
2022-11-22T16:33:32.529Z,99728.78
2022-11-22T16:36:01.892Z,99733.69
2022-11-22T16:38:29.750Z,99725.69
2022-11-22T16:40:59.245Z,99717.63
2022-11-22T16:43:34.206Z,99658.69
2022-11-22T16:46:02.700Z,99723.44
2022-11-22T16:48:32.609Z,99657.22
2022-11-22T16:51:06.265Z,99723.56
2022-11-22T16:53:48.459Z,99702.03
2022-11-22T16:56:24.481Z,99731.50
2022-11-22T16:58:54.770Z,99703.84
2022-11-22T17:01:26.555Z,99671.38
2022-11-22T17:03:57.123Z,99722.81
2022-11-22T17:06:27.145Z,99702.34
2022-11-22T17:08:57.463Z,99667.47
2022-11-22T17:11:27.382Z,99709.47
2022-11-22T17:13:55.531Z,99690.44
2022-11-22T17:16:24.762Z,99716.72
2022-11-22T17:18:53.464Z,99701.66
2022-11-22T17:21:35.860Z,99709.16
2022-11-22T17:24:13.508Z,99686.84
2022-11-22T17:26:41.373Z,99624.84
2022-11-22T17:29:18.321Z,99721.88
2022-11-22T17:31:57.648Z,99701.84
2022-11-22T17:34:25.396Z,99715.56
2022-11-22T17:36:53.134Z,99709.06
2022-11-22T17:39:20.907Z,99733.69
2022-11-22T17:41:49.651Z,99721.06
2022-11-22T17:44:18.349Z,99718.16
2022-11-22T17:46:47.302Z,99711.63
2022-11-22T17:49:16.310Z,99751.03
2022-11-22T17:51:44.159Z,99712.75
2022-11-22T17:54:11.711Z,99728.41
2022-11-22T17:56:39.483Z,99735.06
2022-11-22T17:59:08.472Z,99729.84
2022-11-22T18:01:37.059Z,99710.03
2022-11-22T18:04:05.529Z,99696.19
2022-11-22T18:06:33.167Z,99690.75
2022-11-22T18:09:01.075Z,99750.16
2022-11-22T18:11:28.793Z,99728.63
2022-11-22T18:13:56.544Z,99703.38
2022-11-22T18:16:28.564Z,99660.06
2022-11-22T18:18:58.252Z,99729.84
2022-11-22T18:21:32.288Z,99748.75
2022-11-22T18:24:01.218Z,99729.63
2022-11-22T18:26:44.657Z,99732.44
2022-11-22T18:32:02.238Z,99736.31
2022-11-22T18:34:31.179Z,99753.59
2022-11-22T18:37:02.469Z,99762.84
2022-11-22T18:39:35.022Z,99745.91
2022-11-22T18:42:04.943Z,99764.63
2022-11-22T18:44:33.021Z,99753.09
2022-11-22T18:47:00.758Z,99765.75
2022-11-22T18:49:28.824Z,99711.97
2022-11-22T18:51:56.597Z,99762.63
2022-11-22T18:54:24.618Z,99778.13
2022-11-22T18:56:52.598Z,99768.44
2022-11-22T18:59:20.395Z,99747.44
2022-11-22T19:01:48.364Z,99762.22
2022-11-22T19:04:16.778Z,99730.81
2022-11-22T19:06:45.331Z,99715.75
2022-11-22T19:09:13.423Z,99760.28
2022-11-22T19:11:41.155Z,99760.78
2022-11-22T19:14:09.927Z,99714.03
2022-11-22T19:16:37.855Z,99752.63
2022-11-22T19:19:05.745Z,99685.09
2022-11-22T19:21:33.518Z,99749.75
2022-11-22T19:24:02.474Z,99767.34
2022-11-22T19:26:30.149Z,99770.69
2022-11-22T19:29:00.340Z,99739.69
2022-11-22T19:31:31.649Z,99713.88
2022-11-22T19:33:59.894Z,99774.94
2022-11-22T19:36:34.193Z,99773.09
2022-11-22T19:39:04.442Z,99736.72
2022-11-22T19:41:32.488Z,99774.41
2022-11-22T19:44:01.845Z,99731.53
2022-11-22T19:46:30.411Z,99758.88
2022-11-22T19:49:00.200Z,99692.44
2022-11-22T19:51:30.144Z,99721.47
2022-11-22T19:54:02.240Z,99739.75
2022-11-22T19:56:38.347Z,99648.88
2022-11-22T19:59:08.353Z,99734.31
2022-11-22T20:01:36.130Z,99697.31
2022-11-22T20:04:05.973Z,99743.78
2022-11-22T20:06:35.267Z,99672.72
2022-11-22T20:09:12.286Z,99737.84
2022-11-22T20:11:41.521Z,99737.75
2022-11-22T20:14:10.123Z,99740.25
2022-11-22T20:16:42.948Z,99694.75
2022-11-22T20:19:12.626Z,99735.06
2022-11-22T20:21:40.651Z,99748.75
2022-11-22T20:24:08.989Z,99721.00
2022-11-22T20:26:38.441Z,99696.59
2022-11-22T20:29:08.333Z,99713.97
2022-11-22T20:31:38.607Z,99721.28
2022-11-22T20:34:07.594Z,99768.59
2022-11-22T20:36:35.892Z,99738.09
2022-11-22T20:39:09.821Z,99712.75
2022-11-22T20:41:39.006Z,99758.81
2022-11-22T20:44:11.366Z,99753.97
2022-11-22T20:46:40.516Z,99738.50
2022-11-22T20:49:08.484Z,99679.75
2022-11-22T20:51:40.132Z,99703.66
2022-11-22T20:54:09.184Z,99726.78
2022-11-22T20:56:38.324Z,99738.06
2022-11-22T20:59:07.091Z,99710.66
2022-11-22T21:01:35.970Z,99725.53
2022-11-22T21:04:03.859Z,99722.94
2022-11-22T21:06:33.779Z,99715.53
2022-11-22T21:09:01.625Z,99709.47
2022-11-22T21:11:32.003Z,99725.06
2022-11-22T21:13:59.899Z,99697.25
2022-11-22T21:16:29.572Z,99726.56
2022-11-22T21:19:02.283Z,99693.09
2022-11-22T21:21:31.119Z,99732.81
2022-11-22T21:24:01.505Z,99732.63
2022-11-22T21:26:29.874Z,99734.88
2022-11-22T21:29:00.209Z,99724.00
2022-11-22T21:31:28.508Z,99730.81
2022-11-22T21:33:56.414Z,99693.22
2022-11-22T21:36:24.231Z,99717.56
2022-11-22T21:38:52.403Z,99748.97
2022-11-22T21:44:11.068Z,99756.78
2022-11-22T21:46:39.484Z,99755.50
2022-11-22T21:49:07.517Z,99686.78
2022-11-22T21:51:36.508Z,99684.41
2022-11-22T21:54:04.535Z,99727.22
2022-11-22T21:56:32.162Z,99686.31
2022-11-22T21:58:59.920Z,99725.22
2022-11-22T22:01:27.945Z,99735.78
2022-11-22T22:03:58.583Z,99694.84
2022-11-22T22:06:26.355Z,99707.75
2022-11-22T22:08:56.148Z,99714.56
2022-11-22T22:11:24.254Z,99745.25
2022-11-22T22:13:56.832Z,99703.84
2022-11-22T22:16:27.479Z,99722.81
2022-11-22T22:19:04.353Z,99717.38
2022-11-22T22:21:38.558Z,99675.88
2022-11-22T22:24:06.592Z,99721.63
2022-11-22T22:26:34.401Z,99723.53
2022-11-22T22:29:02.099Z,99738.31
2022-11-22T22:31:29.862Z,99680.38
2022-11-22T22:33:57.975Z,99720.00
2022-11-22T22:36:27.740Z,99731.69
2022-11-22T22:38:55.692Z,99735.91
2022-11-22T22:41:23.765Z,99681.41
2022-11-22T22:43:51.422Z,99731.69
2022-11-22T22:46:27.553Z,99714.41
2022-11-22T22:48:56.441Z,99705.44
2022-11-22T22:51:32.378Z,99728.06
2022-11-22T22:54:01.395Z,99721.81
2022-11-22T22:56:31.448Z,99704.03
2022-11-22T22:59:01.301Z,99722.81
2022-11-22T23:01:31.430Z,99707.94
2022-11-22T23:04:01.558Z,99691.34
2022-11-22T23:06:32.487Z,99708.53
2022-11-22T23:09:00.739Z,99661.09
2022-11-22T23:11:49.918Z,99654.53
2022-11-22T23:14:20.477Z,99705.72
2022-11-22T23:16:52.036Z,99695.66
2022-11-22T23:19:23.302Z,99678.25
2022-11-22T23:21:51.359Z,99627.19
2022-11-22T23:24:19.394Z,99686.41
2022-11-22T23:26:48.075Z,99667.91
2022-11-22T23:29:15.835Z,99691.56
2022-11-22T23:31:43.607Z,99657.38
2022-11-22T23:34:11.929Z,99649.19
2022-11-22T23:36:41.293Z,99658.44
2022-11-22T23:39:10.256Z,99705.53
2022-11-22T23:41:38.151Z,99690.44
2022-11-22T23:44:06.204Z,99613.00
2022-11-22T23:46:33.901Z,99677.16
2022-11-22T23:49:03.358Z,99670.13
2022-11-22T23:51:32.811Z,99655.31
2022-11-22T23:54:03.130Z,99682.22
2022-11-22T23:56:32.571Z,99663.47
2022-11-22T23:59:01.314Z,99662.47
